Time;durP1;ratioP1;P1;durP2;ratioP2;P2;SDS_P1;SDS_P2;PMS_P1;PMS_P2;Temp;Humidity;BMP_temperature;BMP_pressure;BME280_temperature;BME280_humidity;BME280_pressure;Samples;Min_cycle;Max_cycle;Signal;HPM_P1;HPM_P2
2021/07/16 00:00:29;;;;;;;;;;;;;;;14.91;100.00;95888.09;1048748;28;20400;-76
2021/07/16 00:01:00;;;;;;;;;;;;;;;14.91;100.00;95882.72;1049046;28;19917;-75
2021/07/16 00:01:31;;;;;;;;;;;;;;;14.90;100.00;95883.81;1053580;28;19916;-76
2021/07/16 00:02:02;;;;;;;;;;;;;;;14.90;100.00;95886.50;1053472;28;19912;-76
2021/07/16 00:02:32;;;;;;;;;;;;;;;14.89;100.00;95885.69;1053423;28;19951;-76
2021/07/16 00:03:02;;;;;;;;;;;;;;;14.90;100.00;95884.63;1053295;28;19916;-76
2021/07/16 00:03:33;;;;;;;;;;;;;;;14.89;100.00;95885.69;1053269;28;19908;-76
2021/07/16 00:04:03;;;;;;;;;;;;;;;14.90;100.00;95895.38;1053267;28;19916;-76
2021/07/16 00:04:33;;;;;;;;;;;;;;;14.90;100.00;95895.38;1048764;28;20376;-77
2021/07/16 00:05:04;;;;;;;;;;;;;;;14.87;100.00;95898.66;1049151;28;20014;-77
2021/07/16 00:05:34;;;;;;;;;;;;;;;14.88;100.00;95891.38;1048821;28;20222;-77
2021/07/16 00:06:04;;;;;;;;;;;;;;;14.88;100.00;95891.38;1048902;28;19923;-75
2021/07/16 00:06:35;;;;;;;;;;;;;;;14.87;100.00;95890.59;1053389;28;19910;-76
2021/07/16 00:07:05;;;;;;;;;;;;;;;14.88;100.00;95892.19;1053338;28;20246;-76
2021/07/16 00:07:36;;;;;;;;;;;;;;;14.88;100.00;95897.56;1048931;28;19923;-76
2021/07/16 00:08:07;;;;;;;;;;;;;;;14.88;100.00;95884.09;1048587;28;19942;-76
2021/07/16 00:08:37;;;;;;;;;;;;;;;14.87;100.00;95890.59;1048614;28;19935;-76
2021/07/16 00:09:07;;;;;;;;;;;;;;;14.87;100.00;95890.59;1049013;28;19962;-76
2021/07/16 00:09:38;;;;;;;;;;;;;;;14.86;100.00;95897.06;1053380;28;19931;-76
2021/07/16 00:10:09;;;;;;;;;;;;;;;14.85;100.00;95890.09;1053414;28;19985;-76
2021/07/16 00:10:41;;;;;;;;;;;;;;;14.86;100.00;95894.38;1053383;28;20418;-76
2021/07/16 00:11:11;;;;;;;;;;;;;;;14.85;100.00;95895.47;1053469;28;20440;-76
2021/07/16 00:11:42;;;;;;;;;;;;;;;14.83;100.00;95898.44;1053257;28;19904;-76
2021/07/16 00:12:12;;;;;;;;;;;;;;;14.85;100.00;95897.38;1053232;28;19974;-77
2021/07/16 00:12:42;;;;;;;;;;;;;;;14.82;100.00;95899.56;1053401;28;19904;-77
2021/07/16 00:13:13;;;;;;;;;;;;;;;14.81;100.00;95897.97;1053338;28;19923;-76
2021/07/16 00:13:43;;;;;;;;;;;;;;;14.80;100.00;95904.44;1053202;28;19946;-76
2021/07/16 00:14:13;;;;;;;;;;;;;;;14.80;100.00;95903.66;1053170;28;19912;-76
2021/07/16 00:14:43;;;;;;;;;;;;;;;14.78;100.00;95906.63;1048953;28;20385;-76
2021/07/16 00:15:14;;;;;;;;;;;;;;;14.75;100.00;95896.47;1053051;28;20003;-77
2021/07/16 00:15:45;;;;;;;;;;;;;;;14.78;100.00;95903.13;1048695;28;19990;-76
2021/07/16 00:16:15;;;;;;;;;;;;;;;14.75;100.00;95899.16;1048983;28;20358;-77
2021/07/16 00:16:45;;;;;;;;;;;;;;;14.67;100.00;95907.13;1052952;28;20266;-76
2021/07/16 00:17:15;;;;;;;;;;;;;;;14.67;100.00;95904.44;1048947;28;20446;-76
2021/07/16 00:17:46;;;;;;;;;;;;;;;14.64;100.00;95897.75;1048978;28;19951;-77
2021/07/16 00:18:16;;;;;;;;;;;;;;;14.62;100.00;95905.31;1048332;28;19912;-78
2021/07/16 00:18:46;;;;;;;;;;;;;;;14.59;100.00;95900.56;1048621;28;19951;-77
2021/07/16 00:19:16;;;;;;;;;;;;;;;14.58;100.00;95896.25;1048874;28;19923;-78
2021/07/16 00:19:47;;;;;;;;;;;;;;;14.56;100.00;95898.44;1053228;28;19953;-77
2021/07/16 00:20:17;;;;;;;;;;;;;;;14.54;100.00;95904.13;1048775;28;20289;-78
2021/07/16 00:20:48;;;;;;;;;;;;;;;14.55;100.00;95904.91;1048770;28;19905;-78
2021/07/16 00:21:18;;;;;;;;;;;;;;;14.55;100.00;95904.91;1052914;28;19912;-78
2021/07/16 00:21:48;;;;;;;;;;;;;;;14.52;100.00;95900.13;1053072;28;19904;-78
2021/07/16 00:22:19;;;;;;;;;;;;;;;14.49;100.00;95906.13;1052943;28;19964;-78
2021/07/16 00:22:50;;;;;;;;;;;;;;;14.46;100.00;95901.28;1048637;28;20293;-78
2021/07/16 00:23:20;;;;;;;;;;;;;;;14.45;100.00;95897.81;1040489;28;20019;-78
2021/07/16 00:23:50;;;;;;;;;;;;;;;14.41;100.00;95902.16;1040353;28;19957;-78
2021/07/16 00:24:20;;;;;;;;;;;;;;;14.42;100.00;95902.97;1044657;28;19917;-78
2021/07/16 00:24:51;;;;;;;;;;;;;;;14.44;100.00;95900.78;1048681;28;19974;-78
2021/07/16 00:25:21;;;;;;;;;;;;;;;14.43;100.00;95907.25;1048571;28;19916;-78
2021/07/16 00:25:51;;;;;;;;;;;;;;;14.42;100.00;95901.06;1048661;28;19916;-78
2021/07/16 00:26:22;;;;;;;;;;;;;;;14.40;100.00;95900.59;1048682;28;20348;-78
2021/07/16 00:26:52;;;;;;;;;;;;;;;14.40;100.00;95905.16;1048629;28;19939;-78
2021/07/16 00:27:22;;;;;;;;;;;;;;;14.40;100.00;95905.16;1048695;28;19919;-78
2021/07/16 00:27:52;;;;;;;;;;;;;;;14.40;100.00;95903.28;1053151;28;19912;-78
2021/07/16 00:28:23;;;;;;;;;;;;;;;14.40;100.00;95900.59;1052699;28;19963;-78
2021/07/16 00:28:53;;;;;;;;;;;;;;;14.38;100.00;95908.13;1053010;28;19915;-78
2021/07/16 00:29:28;;;;;;;;;;;;;;;14.36;100.00;95904.94;1044649;28;19916;-78
2021/07/16 00:29:58;;;;;;;;;;;;;;;14.37;100.00;95901.16;1040224;28;20360;-78
2021/07/16 00:30:29;;;;;;;;;;;;;;;14.36;100.00;95904.16;1036258;28;19949;-78
2021/07/16 00:30:59;;;;;;;;;;;;;;;14.34;100.00;95904.47;1037671;28;19909;-78
2021/07/16 00:31:30;;;;;;;;;;;;;;;14.36;100.00;95901.47;1040438;28;19953;-78
2021/07/16 00:32:01;;;;;;;;;;;;;;;14.37;100.00;95898.47;1044641;28;19913;-78
2021/07/16 00:32:31;;;;;;;;;;;;;;;14.33;100.00;95902.88;1048761;28;19913;-78
2021/07/16 00:33:02;;;;;;;;;;;;;;;14.28;100.00;95901.06;1049069;28;19913;-78
2021/07/16 00:33:32;;;;;;;;;;;;;;;14.30;100.00;95900.75;1044404;28;19921;-78
2021/07/16 00:34:02;;;;;;;;;;;;;;;14.29;100.00;95901.84;1044437;28;19916;-78
2021/07/16 00:34:33;;;;;;;;;;;;;;;14.28;100.00;95901.06;1044644;28;19967;-78
2021/07/16 00:35:04;;;;;;;;;;;;;;;14.29;100.00;95901.84;1044743;28;19931;-78
2021/07/16 00:35:34;;;;;;;;;;;;;;;14.29;100.00;95904.53;1048783;28;19912;-77
2021/07/16 00:36:04;;;;;;;;;;;;;;;14.28;100.00;95905.66;1048701;28;20294;-77
2021/07/16 00:36:34;;;;;;;;;;;;;;;14.30;100.00;95904.25;1048604;28;19974;-75
2021/07/16 00:37:05;;;;;;;;;;;;;;;14.30;100.00;95903.44;1048628;28;19912;-77
2021/07/16 00:37:35;;;;;;;;;;;;;;;14.32;100.00;95906.63;1053124;28;20383;-77
2021/07/16 00:38:05;;;;;;;;;;;;;;;14.32;100.00;95909.31;1048559;28;19923;-76
2021/07/16 00:38:36;;;;;;;;;;;;;;;14.32;100.00;95902.03;1048475;28;20395;-75
2021/07/16 00:39:06;;;;;;;;;;;;;;;14.34;100.00;95903.66;1039824;28;19913;-76
2021/07/16 00:39:37;;;;;;;;;;;;;;;14.34;100.00;95904.47;1040303;28;20293;-78
2021/07/16 00:40:08;;;;;;;;;;;;;;;14.34;100.00;95903.66;1044474;28;20015;-75
2021/07/16 00:40:38;;;;;;;;;;;;;;;14.35;100.00;95908.72;1044688;28;19912;-77
2021/07/16 00:41:09;;;;;;;;;;;;;;;14.38;100.00;95901.97;1044385;28;20289;-78
2021/07/16 00:41:39;;;;;;;;;;;;;;;14.37;100.00;95905.75;1044438;28;19939;-77
2021/07/16 00:42:09;;;;;;;;;;;;;;;14.37;100.00;95906.53;1044451;28;19944;-78
2021/07/16 00:42:40;;;;;;;;;;;;;;;14.37;100.00;95903.84;1044396;28;20358;-75
2021/07/16 00:43:11;;;;;;;;;;;;;;;14.37;100.00;95903.06;1048839;28;20273;-76
2021/07/16 00:43:41;;;;;;;;;;;;;;;14.36;100.00;95904.94;1048953;28;19913;-76
2021/07/16 00:44:11;;;;;;;;;;;;;;;14.37;100.00;95903.06;1048822;28;19935;-76
2021/07/16 00:44:42;;;;;;;;;;;;;;;14.37;100.00;95898.47;1044455;28;20004;-76
2021/07/16 00:45:12;;;;;;;;;;;;;;;14.38;100.00;95899.25;1044494;28;20297;-76
2021/07/16 00:45:43;;;;;;;;;;;;;;;14.40;100.00;95899.78;1044528;28;19964;-77
2021/07/16 00:46:13;;;;;;;;;;;;;;;14.38;100.00;95908.13;1040367;28;20282;-77
2021/07/16 00:46:43;;;;;;;;;;;;;;;14.39;100.00;95907.06;1040368;28;19917;-77
2021/07/16 00:47:13;;;;;;;;;;;;;;;14.40;100.00;95905.97;1040235;28;19914;-77
2021/07/16 00:47:44;;;;;;;;;;;;;;;14.39;100.00;95904.38;1040368;28;19917;-77
2021/07/16 00:48:14;;;;;;;;;;;;;;;14.37;100.00;95903.84;1044556;28;19913;-77
2021/07/16 00:48:45;;;;;;;;;;;;;;;14.38;100.00;95902.75;1048974;28;19950;-77
2021/07/16 00:49:15;;;;;;;;;;;;;;;14.39;100.00;95900.88;1045752;28;20274;-77
2021/07/16 00:49:45;;;;;;;;;;;;;;;14.38;100.00;95900.06;1044626;28;19917;-77
2021/07/16 00:50:20;;;;;;;;;;;;;;;14.37;100.00;95903.84;1044433;28;19909;-77
2021/07/16 00:50:52;;;;;;;;;;;;;;;14.37;100.00;95903.06;1045084;28;19950;-78
2021/07/16 00:51:22;;;;;;;;;;;;;;;14.38;100.00;95900.06;1049497;28;20380;-77
2021/07/16 00:51:52;;;;;;;;;;;;;;;14.37;100.00;95895.78;1048528;28;19912;-77
2021/07/16 00:52:23;;;;;;;;;;;;;;;14.38;100.00;95896.56;1052805;28;19951;-77
2021/07/16 00:52:53;;;;;;;;;;;;;;;14.35;100.00;95906.03;1052881;28;20288;-77
2021/07/16 00:53:23;;;;;;;;;;;;;;;14.33;100.00;95900.19;1044491;28;20064;-77
2021/07/16 00:53:54;;;;;;;;;;;;;;;14.34;100.00;95899.09;1044589;28;19915;-77
2021/07/16 00:54:24;;;;;;;;;;;;;;;14.30;100.00;95901.56;1036297;28;19952;-77
2021/07/16 00:54:54;;;;;;;;;;;;;;;14.28;100.00;95898.38;1036389;28;19913;-77
2021/07/16 00:55:25;;;;;;;;;;;;;;;14.27;100.00;95890.59;1048519;28;19977;-77
2021/07/16 00:55:55;;;;;;;;;;;;;;;14.27;100.00;95895.97;1052839;28;19923;-77
2021/07/16 00:56:25;;;;;;;;;;;;;;;14.28;100.00;95897.59;1048780;28;19939;-77
2021/07/16 00:56:55;;;;;;;;;;;;;;;14.29;100.00;95902.66;1053629;28;20029;-77
2021/07/16 00:57:26;;;;;;;;;;;;;;;14.28;100.00;95894.91;1049422;28;19909;-77
2021/07/16 00:57:56;;;;;;;;;;;;;;;14.28;100.00;95901.06;1049649;28;19965;-78
2021/07/16 00:58:26;;;;;;;;;;;;;;;14.26;100.00;95897.06;1053862;28;20264;-77
2021/07/16 00:58:57;;;;;;;;;;;;;;;14.28;100.00;95900.28;1053954;28;19912;-77
2021/07/16 00:59:27;;;;;;;;;;;;;;;14.28;100.00;95900.28;1048752;28;19913;-77
2021/07/16 00:59:57;;;;;;;;;;;;;;;14.28;100.00;95898.38;1049342;28;20027;-78
2021/07/16 01:00:27;;;;;;;;;;;;;;;14.28;100.00;95895.69;1049308;28;19962;-78
2021/07/16 01:00:58;;;;;;;;;;;;;;;14.29;100.00;95899.16;1045285;28;19913;-77
2021/07/16 01:01:28;;;;;;;;;;;;;;;14.26;100.00;95897.06;1045218;28;19913;-77
2021/07/16 01:01:58;;;;;;;;;;;;;;;14.28;100.00;95894.91;1041131;28;19931;-77
2021/07/16 01:02:29;;;;;;;;;;;;;;;14.22;100.00;95894.16;1041011;28;20307;-77
2021/07/16 01:02:59;;;;;;;;;;;;;;;14.19;100.00;95893.97;1041147;28;19918;-77
2021/07/16 01:03:29;;;;;;;;;;;;;;;14.19;100.00;95891.28;1041155;28;19921;-75
2021/07/16 01:03:59;;;;;;;;;;;;;;;14.18;100.00;95897.75;1041037;28;19952;-77
2021/07/16 01:04:30;;;;;;;;;;;;;;;14.17;100.00;95893.44;1041203;28;19913;-77
2021/07/16 01:05:00;;;;;;;;;;;;;;;14.13;100.00;95889.78;1045289;28;19913;-77
2021/07/16 01:05:31;;;;;;;;;;;;;;;14.10;100.00;95896.53;1045245;28;19964;-77
2021/07/16 01:06:04;;;;;;;;;;;;;;;14.09;100.00;95891.44;1049346;28;20419;-77
2021/07/16 01:06:34;;;;;;;;;;;;;;;14.10;100.00;95891.16;1049223;28;20369;-76
2021/07/16 01:07:05;;;;;;;;;;;;;;;14.11;100.00;95889.25;1045350;28;19913;-77
2021/07/16 01:07:36;;;;;;;;;;;;;;;14.11;100.00;95894.63;1045112;28;19917;-77
2021/07/16 01:08:07;;;;;;;;;;;;;;;14.05;100.00;95892.03;1041049;28;19913;-77
2021/07/16 01:08:37;;;;;;;;;;;;;;;14.08;100.00;95890.66;1041405;28;19913;-76
2021/07/16 01:09:07;;;;;;;;;;;;;;;14.08;100.00;95896.03;1045540;28;19913;-76
2021/07/16 01:09:38;;;;;;;;;;;;;;;14.08;100.00;95893.34;1049277;28;20537;-73
2021/07/16 01:10:08;;;;;;;;;;;;;;;14.07;100.00;95893.63;1052687;28;19924;-73
2021/07/16 01:10:39;;;;;;;;;;;;;;;14.04;100.00;95895.81;1053840;28;20015;-73
2021/07/16 01:11:09;;;;;;;;;;;;;;;14.05;100.00;95896.59;1053886;28;19908;-73
2021/07/16 01:11:39;;;;;;;;;;;;;;;14.04;100.00;95887.75;1053871;28;19916;-73
2021/07/16 01:12:10;;;;;;;;;;;;;;;14.05;100.00;95888.53;1053712;28;19913;-73
2021/07/16 01:12:41;;;;;;;;;;;;;;;14.04;100.00;95886.97;1049333;28;19916;-73
2021/07/16 01:13:14;;;;;;;;;;;;;;;14.02;100.00;95889.94;1049388;28;20479;-73
2021/07/16 01:13:44;;;;;;;;;;;;;;;14.01;100.00;95887.53;1045212;28;19916;-73
2021/07/16 01:14:15;;;;;;;;;;;;;;;14.01;100.00;95899.06;1044281;28;19913;-73
2021/07/16 01:14:45;;;;;;;;;;;;;;;14.02;100.00;95887.25;1046186;28;19913;-73
2021/07/16 01:15:15;;;;;;;;;;;;;;;14.00;100.00;95897.47;1045192;28;19966;-73
2021/07/16 01:15:46;;;;;;;;;;;;;;;13.99;100.00;95887.84;1045230;28;20034;-73
2021/07/16 01:16:16;;;;;;;;;;;;;;;13.98;100.00;95888.94;1045090;28;20420;-73
2021/07/16 01:16:46;;;;;;;;;;;;;;;13.99;100.00;95887.03;1045235;28;20397;-73
2021/07/16 01:17:16;;;;;;;;;;;;;;;13.99;100.00;95887.84;1049656;28;19920;-73
2021/07/16 01:17:47;;;;;;;;;;;;;;;13.99;100.00;95887.84;1045129;28;19978;-73
2021/07/16 01:18:17;;;;;;;;;;;;;;;14.01;100.00;95887.53;1045097;28;19909;-73
2021/07/16 01:18:47;;;;;;;;;;;;;;;14.02;100.00;95892.63;1045178;28;19916;-73
2021/07/16 01:19:23;;;;;;;;;;;;;;;14.02;100.00;95887.25;1040996;28;19909;-73
2021/07/16 01:19:59;;;;;;;;;;;;;;;13.99;100.00;95882.47;1035871;28;19956;-74
2021/07/16 01:20:30;;;;;;;;;;;;;;;13.97;100.00;95881.97;1038403;28;19922;-73
2021/07/16 01:21:00;;;;;;;;;;;;;;;13.96;100.00;95887.63;1042606;28;19909;-73
2021/07/16 01:21:31;;;;;;;;;;;;;;;13.97;100.00;95887.34;1047039;28;19967;-73
2021/07/16 01:22:02;;;;;;;;;;;;;;;13.97;100.00;95883.81;1049339;28;19977;-73
2021/07/16 01:22:32;;;;;;;;;;;;;;;13.94;100.00;95887.91;1053254;28;19912;-73
2021/07/16 01:23:14;;;;;;;;;;;;;;;13.93;100.00;95878.28;1053462;28;20029;-73
2021/07/16 01:23:44;;;;;;;;;;;;;;;13.93;100.00;95878.28;1055219;28;19924;-73
2021/07/16 01:24:16;;;;;;;;;;;;;;;13.95;100.00;95881.44;1047320;28;19950;-73
2021/07/16 01:24:46;;;;;;;;;;;;;;;13.96;100.00;95888.41;1040300;28;20363;-73
2021/07/16 01:25:18;;;;;;;;;;;;;;;13.96;100.00;95880.34;1045162;28;19916;-72
2021/07/16 01:25:48;;;;;;;;;;;;;;;14.00;100.00;95886.75;1045934;28;19924;-73
2021/07/16 01:26:18;;;;;;;;;;;;;;;14.00;100.00;95883.25;1049617;28;19919;-73
2021/07/16 01:26:48;;;;;;;;;;;;;;;13.98;100.00;95878.19;1048923;28;19917;-73
2021/07/16 01:27:19;;;;;;;;;;;;;;;13.98;100.00;95878.19;1041064;28;19921;-73
2021/07/16 01:27:50;;;;;;;;;;;;;;;13.97;100.00;95881.97;1032837;28;19924;-73
2021/07/16 01:28:20;;;;;;;;;;;;;;;13.96;100.00;95877.66;1032295;28;19960;-73
2021/07/16 01:28:51;;;;;;;;;;;;;;;13.96;100.00;95882.25;1036628;28;19995;-72
2021/07/16 01:29:21;;;;;;;;;;;;;;;13.97;100.00;95879.28;1037139;28;19913;-72
2021/07/16 01:29:52;;;;;;;;;;;;;;;13.97;100.00;95881.16;1045180;28;19978;-72
2021/07/16 01:30:23;;;;;;;;;;;;;;;13.97;100.00;95884.66;1045138;28;20020;-73
2021/07/16 01:30:53;;;;;;;;;;;;;;;13.98;100.00;95880.88;1049313;28;19917;-72
2021/07/16 01:31:23;;;;;;;;;;;;;;;13.98;100.00;95874.69;1053539;28;19908;-72
2021/07/16 01:31:54;;;;;;;;;;;;;;;13.98;100.00;95874.69;1049177;28;19916;-73
2021/07/16 01:32:24;;;;;;;;;;;;;;;13.99;100.00;95881.66;1049313;28;19955;-73
2021/07/16 01:32:54;;;;;;;;;;;;;;;13.97;100.00;95879.28;1040837;28;20386;-73
2021/07/16 01:33:25;;;;;;;;;;;;;;;13.97;100.00;95871.22;1040822;28;19919;-72
2021/07/16 01:33:55;;;;;;;;;;;;;;;13.97;100.00;95867.72;1045141;28;19921;-72
2021/07/16 01:34:25;;;;;;;;;;;;;;;13.99;100.00;95870.91;1045193;28;19992;-74
2021/07/16 01:34:55;;;;;;;;;;;;;;;14.01;100.00;95874.88;1044958;28;20083;-73
2021/07/16 01:35:26;;;;;;;;;;;;;;;13.99;100.00;95869.03;1041076;28;19932;-74
2021/07/16 01:35:56;;;;;;;;;;;;;;;13.97;100.00;95868.53;1041026;28;19921;-73
2021/07/16 01:36:27;;;;;;;;;;;;;;;13.96;100.00;95866.91;1036903;28;19949;-72
2021/07/16 01:36:57;;;;;;;;;;;;;;;13.96;100.00;95874.97;1045009;28;20378;-72
2021/07/16 01:37:27;;;;;;;;;;;;;;;13.97;100.00;95859.66;1049271;28;19911;-73
2021/07/16 01:37:58;;;;;;;;;;;;;;;13.96;100.00;95866.13;1049280;28;20059;-72
2021/07/16 01:38:28;;;;;;;;;;;;;;;13.97;100.00;95868.53;1049056;28;19905;-73
2021/07/16 01:38:58;;;;;;;;;;;;;;;13.97;100.00;95868.53;1049060;28;19912;-72
2021/07/16 01:39:29;;;;;;;;;;;;;;;13.98;100.00;95863.97;1049199;28;19908;-74
2021/07/16 01:39:59;;;;;;;;;;;;;;;13.98;100.00;95870.13;1053768;28;19916;-73
2021/07/16 01:40:35;;;;;;;;;;;;;;;13.98;100.00;95872.81;1049208;28;20354;-73
2021/07/16 01:41:05;;;;;;;;;;;;;;;13.97;100.00;95868.53;1049164;28;19916;-73
2021/07/16 01:41:35;;;;;;;;;;;;;;;13.96;100.00;95866.13;1049220;28;19901;-73
2021/07/16 01:42:06;;;;;;;;;;;;;;;13.96;100.00;95866.13;1050060;28;20361;-72
2021/07/16 01:42:37;;;;;;;;;;;;;;;13.94;100.00;95869.09;1053658;28;19904;-73
2021/07/16 01:43:07;;;;;;;;;;;;;;;13.96;100.00;95866.13;1049137;28;19967;-72
2021/07/16 01:43:37;;;;;;;;;;;;;;;13.97;100.00;95871.22;1053284;28;19947;-73
2021/07/16 01:44:08;;;;;;;;;;;;;;;13.93;100.00;95861.34;1049072;28;20292;-72
2021/07/16 01:44:39;;;;;;;;;;;;;;;13.93;100.00;95872.91;1049167;28;19912;-73
2021/07/16 01:45:10;;;;;;;;;;;;;;;13.94;100.00;95866.44;1053185;28;19912;-72
2021/07/16 01:45:40;;;;;;;;;;;;;;;13.95;100.00;95876.06;1049315;28;19942;-73
2021/07/16 01:46:11;;;;;;;;;;;;;;;13.95;100.00;95865.31;1053692;28;19962;-72
2021/07/16 01:46:42;;;;;;;;;;;;;;;13.96;100.00;95872.28;1053666;28;19919;-74
2021/07/16 01:47:12;;;;;;;;;;;;;;;13.96;100.00;95874.19;1053729;28;19919;-72
2021/07/16 01:47:44;;;;;;;;;;;;;;;13.94;100.00;95874.47;1049056;28;20431;-73
2021/07/16 01:48:15;;;;;;;;;;;;;;;13.94;100.00;95876.38;1044975;28;19909;-72
2021/07/16 01:48:45;;;;;;;;;;;;;;;13.95;100.00;95880.66;1045092;28;19912;-73
2021/07/16 01:49:16;;;;;;;;;;;;;;;13.94;100.00;95879.06;1045427;28;19913;-73
2021/07/16 01:49:46;;;;;;;;;;;;;;;13.95;100.00;95880.66;1053314;28;19934;-73
2021/07/16 01:50:16;;;;;;;;;;;;;;;13.95;100.00;95877.97;1057626;28;19973;-72
2021/07/16 01:50:47;;;;;;;;;;;;;;;13.95;100.00;95876.06;1057549;28;19916;-73
2021/07/16 01:51:18;;;;;;;;;;;;;;;13.97;100.00;95881.16;1057525;28;19912;-72
2021/07/16 01:51:48;;;;;;;;;;;;;;;13.99;100.00;95879.78;1053556;28;19912;-73
2021/07/16 01:52:18;;;;;;;;;;;;;;;13.96;100.00;95874.19;1053560;28;20352;-73
2021/07/16 01:52:49;;;;;;;;;;;;;;;13.94;100.00;95879.84;1053647;28;19919;-73
2021/07/16 01:53:19;;;;;;;;;;;;;;;13.94;100.00;95881.75;1053709;28;19934;-73
2021/07/16 01:53:49;;;;;;;;;;;;;;;13.92;100.00;95882.06;1053530;28;19919;-72
2021/07/16 01:54:20;;;;;;;;;;;;;;;13.91;100.00;95877.75;1053669;28;19908;-72
2021/07/16 01:54:50;;;;;;;;;;;;;;;13.89;100.00;95881.81;1053608;28;19938;-72
2021/07/16 01:55:21;;;;;;;;;;;;;;;13.83;100.00;95881.13;1053659;28;20280;-73
2021/07/16 01:55:51;;;;;;;;;;;;;;;13.83;100.00;95883.00;1053684;28;19912;-72
2021/07/16 01:56:22;;;;;;;;;;;;;;;13.83;100.00;95875.75;1054416;28;20353;-73
2021/07/16 01:56:52;;;;;;;;;;;;;;;13.81;100.00;95885.97;1053658;28;19919;-73
2021/07/16 01:57:22;;;;;;;;;;;;;;;13.79;100.00;95880.91;1053679;28;19909;-73
2021/07/16 01:57:54;;;;;;;;;;;;;;;13.77;100.00;95888.47;1053611;28;20385;-72
2021/07/16 01:58:24;;;;;;;;;;;;;;;13.76;100.00;95881.47;1053674;28;19935;-73
2021/07/16 01:58:54;;;;;;;;;;;;;;;13.73;100.00;95883.97;1053603;28;19912;-72
2021/07/16 01:59:24;;;;;;;;;;;;;;;13.72;100.00;95885.06;1053664;28;19946;-73
2021/07/16 01:59:55;;;;;;;;;;;;;;;13.70;100.00;95873.78;1053604;28;19947;-72
2021/07/16 02:00:27;;;;;;;;;;;;;;;13.67;100.00;95877.88;1053621;28;19931;-72
2021/07/16 02:00:57;;;;;;;;;;;;;;;13.69;100.00;95882.94;1053477;28;20003;-73
2021/07/16 02:01:28;;;;;;;;;;;;;;;13.67;100.00;95879.75;1053558;28;19919;-73
2021/07/16 02:01:58;;;;;;;;;;;;;;;13.64;100.00;95874.97;1053661;28;20003;-73
2021/07/16 02:02:29;;;;;;;;;;;;;;;13.65;100.00;95880.03;1053659;28;19908;-73
2021/07/16 02:03:00;;;;;;;;;;;;;;;13.67;100.00;95874.38;1053529;28;19956;-73
2021/07/16 02:03:30;;;;;;;;;;;;;;;13.64;100.00;95875.75;1053685;28;19916;-73
2021/07/16 02:04:00;;;;;;;;;;;;;;;13.63;100.00;95881.44;1053729;28;20385;-73
2021/07/16 02:04:31;;;;;;;;;;;;;;;13.63;100.00;95879.53;1053642;28;19912;-73
2021/07/16 02:05:01;;;;;;;;;;;;;;;13.64;100.00;95878.44;1053649;28;19908;-73
2021/07/16 02:05:32;;;;;;;;;;;;;;;13.65;100.00;95879.25;1053695;28;20280;-73
2021/07/16 02:06:02;;;;;;;;;;;;;;;13.63;100.00;95882.22;1053533;28;20007;-73
2021/07/16 02:06:32;;;;;;;;;;;;;;;13.66;100.00;95880.81;1053872;28;19913;-73
2021/07/16 02:07:03;;;;;;;;;;;;;;;13.67;100.00;95879.75;1054651;28;19912;-74
2021/07/16 02:07:33;;;;;;;;;;;;;;;13.67;100.00;95885.94;1055358;28;19919;-73
2021/07/16 02:08:05;;;;;;;;;;;;;;;13.68;100.00;95881.34;1055390;28;19913;-73
2021/07/16 02:08:35;;;;;;;;;;;;;;;13.68;100.00;95881.34;1055343;28;19995;-74
2021/07/16 02:09:05;;;;;;;;;;;;;;;13.68;100.00;95882.16;1056633;28;19912;-73
2021/07/16 02:09:36;;;;;;;;;;;;;;;13.68;100.00;95884.84;1056708;28;19916;-73
2021/07/16 02:10:06;;;;;;;;;;;;;;;13.69;100.00;95883.75;1056928;28;19908;-73
2021/07/16 02:10:36;;;;;;;;;;;;;;;13.71;100.00;95889.59;1056825;28;19920;-75
2021/07/16 02:11:07;;;;;;;;;;;;;;;13.73;100.00;95884.75;1057769;28;19931;-73
2021/07/16 02:11:37;;;;;;;;;;;;;;;13.75;100.00;95887.94;1058434;28;19912;-73
2021/07/16 02:12:07;;;;;;;;;;;;;;;13.71;100.00;95883.44;1057851;28;19908;-73
2021/07/16 02:12:37;;;;;;;;;;;;;;;13.70;100.00;95885.31;1057383;28;19912;-74
2021/07/16 02:13:08;;;;;;;;;;;;;;;13.71;100.00;95886.13;1052632;28;19912;-73
2021/07/16 02:13:38;;;;;;;;;;;;;;;13.69;100.00;95891.00;1052928;28;19924;-73
2021/07/16 02:14:08;;;;;;;;;;;;;;;13.68;100.00;95889.41;1052619;28;19938;-73
2021/07/16 02:14:39;;;;;;;;;;;;;;;13.68;100.00;95892.09;1052406;28;19920;-73
2021/07/16 02:15:16;;;;;;;;;;;;;;;13.70;100.00;95892.59;1057011;28;19912;-71
2021/07/16 02:15:47;;;;;;;;;;;;;;;13.71;100.00;95891.50;1056853;28;19923;-70
2021/07/16 02:16:17;;;;;;;;;;;;;;;13.70;100.00;95892.59;1057233;28;19999;-73
2021/07/16 02:16:47;;;;;;;;;;;;;;;13.71;100.00;95894.97;1057415;28;20063;-73
2021/07/16 02:17:18;;;;;;;;;;;;;;;13.71;100.00;95894.19;1056672;28;19951;-74
2021/07/16 02:17:48;;;;;;;;;;;;;;;13.70;100.00;95889.91;1057160;28;19938;-73
2021/07/16 02:18:18;;;;;;;;;;;;;;;13.69;100.00;95891.00;1057708;28;19980;-73
2021/07/16 02:18:49;;;;;;;;;;;;;;;13.68;100.00;95892.88;1055998;28;19987;-73
2021/07/16 02:19:20;;;;;;;;;;;;;;;13.68;100.00;95894.78;1055591;28;19912;-73
2021/07/16 02:19:50;;;;;;;;;;;;;;;13.67;100.00;95887.81;1055335;28;19920;-73
2021/07/16 02:20:21;;;;;;;;;;;;;;;13.67;100.00;95891.31;1055675;28;20340;-72
2021/07/16 02:20:52;;;;;;;;;;;;;;;13.65;100.00;95885.41;1051062;28;19990;-71
2021/07/16 02:21:23;;;;;;;;;;;;;;;13.68;100.00;95892.88;1055628;28;19919;-73
2021/07/16 02:21:53;;;;;;;;;;;;;;;13.69;100.00;95893.69;1055377;28;19958;-73
2021/07/16 02:22:23;;;;;;;;;;;;;;;13.64;100.00;95888.38;1053860;28;20013;-72
2021/07/16 02:22:54;;;;;;;;;;;;;;;13.61;100.00;95889.75;1057302;28;19916;-71
2021/07/16 02:23:26;;;;;;;;;;;;;;;13.62;100.00;95896.75;1053566;28;20246;-72
2021/07/16 02:23:56;;;;;;;;;;;;;;;13.62;100.00;95893.28;1048986;28;19905;-72
2021/07/16 02:24:26;;;;;;;;;;;;;;;13.64;100.00;95893.75;1048032;28;19944;-72
2021/07/16 02:24:57;;;;;;;;;;;;;;;13.64;100.00;95897.25;1048637;28;19904;-72
2021/07/16 02:25:27;;;;;;;;;;;;;;;13.67;100.00;95896.66;1049132;28;19916;-72
2021/07/16 02:25:57;;;;;;;;;;;;;;;13.69;100.00;95894.47;1053534;28;19900;-71
2021/07/16 02:26:28;;;;;;;;;;;;;;;13.71;100.00;95900.34;1049122;28;19999;-72
2021/07/16 02:26:58;;;;;;;;;;;;;;;13.71;100.00;95896.88;1048936;28;19905;-73
2021/07/16 02:27:28;;;;;;;;;;;;;;;13.74;100.00;95901.66;1048995;28;19905;-71
2021/07/16 02:27:59;;;;;;;;;;;;;;;13.76;100.00;95896.78;1053052;28;20390;-71
2021/07/16 02:28:30;;;;;;;;;;;;;;;13.75;100.00;95898.69;1057461;28;19916;-72
2021/07/16 02:29:01;;;;;;;;;;;;;;;13.78;100.00;95898.09;1057408;28;20435;-71
2021/07/16 02:29:33;;;;;;;;;;;;;;;13.76;100.00;95900.28;1057216;28;19904;-72
2021/07/16 02:30:06;;;;;;;;;;;;;;;13.76;100.00;95899.47;1053482;28;20388;-71
2021/07/16 02:30:37;;;;;;;;;;;;;;;13.76;100.00;95905.63;1053428;28;19911;-73
2021/07/16 02:31:08;;;;;;;;;;;;;;;13.75;100.00;95898.69;1048741;28;19908;-72
2021/07/16 02:31:38;;;;;;;;;;;;;;;13.72;100.00;95899.28;1049050;28;19991;-72
2021/07/16 02:32:08;;;;;;;;;;;;;;;13.71;100.00;95902.25;1048974;28;20345;-72
2021/07/16 02:32:38;;;;;;;;;;;;;;;13.71;100.00;95904.91;1049142;28;19948;-71
2021/07/16 02:33:09;;;;;;;;;;;;;;;13.69;100.00;95897.16;1053275;28;19905;-71
2021/07/16 02:33:39;;;;;;;;;;;;;;;13.67;100.00;95895.88;1053280;28;20297;-71
2021/07/16 02:34:09;;;;;;;;;;;;;;;13.67;100.00;95902.03;1052953;28;20357;-71
2021/07/16 02:34:40;;;;;;;;;;;;;;;13.67;100.00;95896.66;1053242;28;19927;-71
2021/07/16 02:35:10;;;;;;;;;;;;;;;13.67;100.00;95903.94;1053451;28;19950;-71
2021/07/16 02:35:40;;;;;;;;;;;;;;;13.67;100.00;95896.66;1053418;28;20332;-72
2021/07/16 02:36:11;;;;;;;;;;;;;;;13.65;100.00;95895.34;1053435;28;19919;-71
2021/07/16 02:36:41;;;;;;;;;;;;;;;13.66;100.00;95897.72;1053486;28;20371;-72
2021/07/16 02:37:12;;;;;;;;;;;;;;;13.67;100.00;95903.94;1053472;28;19954;-71